Time;durP1;ratioP1;P1;durP2;ratioP2;P2;SDS_P1;SDS_P2;PMS_P1;PMS_P2;Temp;Humidity;BMP_temperature;BMP_pressure;BME280_temperature;BME280_humidity;BME280_pressure;Samples;Min_cycle;Max_cycle;Signal;HPM_P1;HPM_P2
2021/10/08 00:02:12;;;;;;;3.08;2.75;;;15.60;89.60;;;;;;4190324;28;20072;-60
2021/10/08 00:04:35;;;;;;;3.75;3.55;;;15.60;89.50;;;;;;4189890;28;20042;-60
2021/10/08 00:06:57;;;;;;;4.53;4.20;;;15.60;89.80;;;;;;4175037;28;20053;-61
2021/10/08 00:09:21;;;;;;;13.38;4.20;;;15.60;89.90;;;;;;4175098;28;20041;-60
2021/10/08 00:11:43;;;;;;;25.33;4.35;;;15.50;89.90;;;;;;4189206;28;20052;-61
2021/10/08 00:14:05;;;;;;;11.70;4.60;;;15.50;90.00;;;;;;4176413;28;20147;-60
2021/10/08 00:16:27;;;;;;;10.98;4.95;;;15.50;90.30;;;;;;4190691;28;20151;-61
2021/10/08 00:18:51;;;;;;;6.05;3.72;;;15.50;90.00;;;;;;4191555;28;20049;-60
2021/10/08 00:21:14;;;;;;;13.95;4.90;;;15.50;90.00;;;;;;4181321;28;20052;-60
2021/10/08 00:23:36;;;;;;;7.80;4.05;;;15.50;90.00;;;;;;4185178;28;20040;-60
2021/10/08 00:25:59;;;;;;;5.07;3.50;;;15.50;90.10;;;;;;4191408;28;20497;-60
2021/10/08 00:28:21;;;;;;;19.90;4.25;;;15.40;90.00;;;;;;4190958;28;20056;-60
2021/10/08 00:30:43;;;;;;;20.27;4.72;;;15.50;90.00;;;;;;4158216;28;20053;-60
2021/10/08 00:33:05;;;;;;;30.02;4.90;;;15.40;90.00;;;;;;4174453;28;20044;-59
2021/10/08 00:35:30;;;;;;;26.10;4.75;;;15.40;90.10;;;;;;4189717;28;20048;-59
2021/10/08 00:37:53;;;;;;;17.55;4.90;;;15.40;90.10;;;;;;4189590;28;20060;-60
2021/10/08 00:40:15;;;;;;;7.32;4.60;;;15.40;90.20;;;;;;4190639;28;20052;-60
2021/10/08 00:42:37;;;;;;;32.58;5.38;;;15.40;90.10;;;;;;4186071;28;20055;-59
2021/10/08 00:45:00;;;;;;;28.45;5.03;;;15.40;90.20;;;;;;4173193;28;20048;-59
2021/10/08 00:47:22;;;;;;;42.47;5.68;;;15.40;90.10;;;;;;4173505;28;20099;-60
2021/10/08 00:49:44;;;;;;;35.55;5.05;;;15.40;90.10;;;;;;4187251;28;20055;-59
2021/10/08 00:52:08;;;;;;;53.97;5.32;;;15.40;90.20;;;;;;4187911;28;20102;-59
2021/10/08 00:54:30;;;;;;;40.20;5.22;;;15.40;90.00;;;;;;4174369;28;20049;-60
2021/10/08 00:56:54;;;;;;;47.97;6.10;;;15.30;90.10;;;;;;4173221;28;20553;-59
2021/10/08 00:59:16;;;;;;;31.63;5.30;;;15.40;90.00;;;;;;4183490;28;20414;-59
2021/10/08 01:01:38;;;;;;;36.25;5.30;;;15.30;90.20;;;;;;4191064;28;20479;-59
2021/10/08 01:04:00;;;;;;;31.58;5.22;;;15.30;90.20;;;;;;4173397;28;20099;-59
2021/10/08 01:06:22;;;;;;;21.13;4.55;;;15.30;90.20;;;;;;4174395;28;20049;-59
2021/10/08 01:08:46;;;;;;;23.85;4.35;;;15.30;90.20;;;;;;4182079;28;20048;-60
2021/10/08 01:11:08;;;;;;;19.17;4.03;;;15.30;90.10;;;;;;4191233;28;20052;-59
2021/10/08 01:13:33;;;;;;;8.25;3.47;;;15.30;90.20;;;;;;4164605;28;20574;-59
2021/10/08 01:15:56;;;;;;;5.35;3.55;;;15.30;90.20;;;;;;4174203;28;20479;-60
2021/10/08 01:18:24;;;;;;;3.88;3.30;;;15.20;90.00;;;;;;4173083;28;20112;-60
2021/10/08 01:20:49;;;;;;;3.75;3.42;;;15.30;90.00;;;;;;4173246;28;20080;-59
2021/10/08 01:23:15;;;;;;;3.22;3.13;;;15.20;90.00;;;;;;4173143;28;20068;-59
2021/10/08 01:25:43;;;;;;;4.13;3.58;;;15.20;90.10;;;;;;4174104;28;20049;-60
2021/10/08 01:28:09;;;;;;;9.32;3.88;;;15.20;90.20;;;;;;4175908;28;20091;-59
2021/10/08 01:30:36;;;;;;;12.00;4.10;;;15.20;90.20;;;;;;4182986;28;20427;-60
2021/10/08 01:32:57;;;;;;;17.05;4.30;;;15.20;90.20;;;;;;4172872;28;20426;-60
2021/10/08 01:35:21;;;;;;;9.77;4.00;;;15.20;90.10;;;;;;4173126;28;20139;-59
2021/10/08 01:37:49;;;;;;;4.07;3.88;;;15.20;90.10;;;;;;4173430;28;20049;-60
2021/10/08 01:40:12;;;;;;;4.55;4.10;;;15.20;90.10;;;;;;4186367;28;20172;-60
2021/10/08 01:42:39;;;;;;;13.45;4.68;;;15.20;90.20;;;;;;4172943;28;20053;-60
2021/10/08 01:45:03;;;;;;;26.75;4.30;;;15.20;90.20;;;;;;4172722;28;20048;-61
2021/10/08 01:47:25;;;;;;;19.45;4.13;;;15.20;90.10;;;;;;4172726;28;20490;-60
2021/10/08 01:49:47;;;;;;;9.43;4.03;;;15.20;90.10;;;;;;4160617;28;20049;-60
2021/10/08 01:52:09;;;;;;;14.45;4.13;;;15.20;90.10;;;;;;4187954;28;20056;-60
2021/10/08 01:54:40;;;;;;;23.20;4.63;;;15.10;90.20;;;;;;4191291;28;20044;-59
2021/10/08 01:57:02;;;;;;;46.97;5.63;;;15.20;90.10;;;;;;4191270;28;20547;-60
2021/10/08 01:59:25;;;;;;;22.55;4.38;;;15.10;90.10;;;;;;4190956;28;20045;-61
2021/10/08 02:01:47;;;;;;;34.10;5.05;;;15.10;90.50;;;;;;4158397;28;20531;-60
2021/10/08 02:04:13;;;;;;;33.40;4.57;;;15.10;90.00;;;;;;4159218;28;20041;-60
2021/10/08 02:06:36;;;;;;;23.48;4.43;;;15.10;90.00;;;;;;4159321;28;20494;-61
2021/10/08 02:08:59;;;;;;;17.73;4.32;;;15.10;90.10;;;;;;4183217;28;20083;-60
2021/10/08 02:11:24;;;;;;;31.35;4.00;;;15.10;90.20;;;;;;4158919;28;20410;-60
2021/10/08 02:13:46;;;;;;;43.70;5.15;;;15.10;90.10;;;;;;4159041;28;20539;-59
2021/10/08 02:16:10;;;;;;;29.42;4.78;;;15.10;90.60;;;;;;4159009;28;20131;-60
2021/10/08 02:18:37;;;;;;;13.25;3.47;;;15.10;90.10;;;;;;4170835;28;20118;-59
2021/10/08 02:20:59;;;;;;;12.27;3.58;;;15.10;90.30;;;;;;4186616;28;20055;-59
2021/10/08 02:23:23;;;;;;;23.23;4.28;;;15.10;90.30;;;;;;4192085;28;20045;-60
2021/10/08 02:25:46;;;;;;;27.02;4.57;;;15.10;90.60;;;;;;4191713;28;20056;-60
2021/10/08 02:28:09;;;;;;;23.13;4.45;;;15.10;90.40;;;;;;4183807;28;20793;-60
2021/10/08 02:30:32;;;;;;;28.23;4.45;;;15.00;90.70;;;;;;4175255;28;20137;-60
2021/10/08 02:32:54;;;;;;;18.75;3.58;;;15.00;90.40;;;;;;4176355;28;20103;-59
2021/10/08 02:35:15;;;;;;;24.10;4.20;;;15.00;90.10;;;;;;4174890;28;20053;-60
2021/10/08 02:37:38;;;;;;;28.65;4.70;;;15.00;90.10;;;;;;4175359;28;20049;-60
2021/10/08 02:40:01;;;;;;;32.28;5.05;;;15.10;90.20;;;;;;4182211;28;20049;-61
2021/10/08 02:42:23;;;;;;;32.17;4.50;;;15.00;90.30;;;;;;4191810;28;20044;-61
2021/10/08 02:44:47;;;;;;;20.77;4.72;;;15.00;90.30;;;;;;4188725;28;20079;-60
2021/10/08 02:47:10;;;;;;;27.38;4.70;;;15.00;90.10;;;;;;4176706;28;20033;-60
2021/10/08 02:49:32;;;;;;;20.67;4.05;;;15.00;90.30;;;;;;4175067;28;20127;-60
2021/10/08 02:51:55;;;;;;;16.98;3.95;;;15.00;90.40;;;;;;4179775;28;20052;-61
2021/10/08 02:54:18;;;;;;;18.90;3.80;;;15.00;90.40;;;;;;4191417;28;20070;-60
2021/10/08 02:56:41;;;;;;;19.60;3.78;;;15.00;90.40;;;;;;4190239;28;20537;-60
2021/10/08 02:59:03;;;;;;;28.48;4.10;;;15.00;90.40;;;;;;4159802;28;20510;-60
2021/10/08 03:01:27;;;;;;;18.60;3.90;;;15.00;90.50;;;;;;4159708;28;20049;-60
2021/10/08 03:03:50;;;;;;;33.47;4.65;;;15.00;90.40;;;;;;4171149;28;20056;-60
2021/10/08 03:06:12;;;;;;;35.92;4.75;;;14.90;90.40;;;;;;4191496;28;20056;-60
2021/10/08 03:08:35;;;;;;;25.65;4.43;;;15.00;90.50;;;;;;4175595;28;20049;-60
2021/10/08 03:10:57;;;;;;;28.05;4.28;;;15.00;90.50;;;;;;4174613;28;20056;-60
2021/10/08 03:13:20;;;;;;;23.88;4.18;;;15.00;90.50;;;;;;4175854;28;20491;-61
2021/10/08 03:15:44;;;;;;;15.27;3.83;;;14.90;90.50;;;;;;4175159;28;20073;-60
2021/10/08 03:18:09;;;;;;;22.80;4.03;;;14.90;90.50;;;;;;4174372;28;20045;-60
2021/10/08 03:20:32;;;;;;;16.80;4.10;;;14.90;90.40;;;;;;4174492;28;20051;-61
2021/10/08 03:22:55;;;;;;;13.23;3.97;;;14.90;90.40;;;;;;4174519;28;20060;-60
2021/10/08 03:25:17;;;;;;;12.65;3.63;;;14.90;90.40;;;;;;4174321;28;20048;-60
2021/10/08 03:27:40;;;;;;;21.85;4.07;;;14.90;90.40;;;;;;4176047;28;20075;-60
2021/10/08 03:30:04;;;;;;;15.95;3.83;;;14.90;90.30;;;;;;4174409;28;20512;-61
2021/10/08 03:32:27;;;;;;;15.68;3.40;;;14.90;90.40;;;;;;4173746;28;20052;-59
2021/10/08 03:34:50;;;;;;;11.30;3.72;;;14.90;90.40;;;;;;4174261;28;20051;-61
2021/10/08 03:37:16;;;;;;;5.85;3.08;;;14.90;90.30;;;;;;4176891;28;20127;-60
2021/10/08 03:39:40;;;;;;;3.92;3.15;;;14.90;90.30;;;;;;4190113;28;20056;-60
2021/10/08 03:42:03;;;;;;;8.73;3.47;;;14.90;90.30;;;;;;4192246;28;20052;-60
2021/10/08 03:44:28;;;;;;;6.03;3.45;;;14.90;90.20;;;;;;4176061;28;20045;-61
2021/10/08 03:46:51;;;;;;;10.32;3.30;;;14.90;90.10;;;;;;4177603;28;20056;-60
2021/10/08 03:49:15;;;;;;;7.80;3.10;;;14.80;90.20;;;;;;4191975;28;20044;-61
2021/10/08 03:51:38;;;;;;;11.27;2.97;;;14.80;90.10;;;;;;4171455;28;20111;-61
2021/10/08 03:54:01;;;;;;;2.55;2.45;;;14.80;90.00;;;;;;4158735;28;20053;-60
2021/10/08 03:56:24;;;;;;;3.08;2.88;;;14.80;90.10;;;;;;4159046;28;20056;-61
2021/10/08 03:58:47;;;;;;;2.65;2.55;;;14.80;90.10;;;;;;4158898;28;20545;-60
2021/10/08 04:01:10;;;;;;;2.80;2.70;;;14.80;90.20;;;;;;4157537;28;20073;-60
2021/10/08 04:03:33;;;;;;;2.67;2.58;;;14.80;90.10;;;;;;4157051;28;20049;-60
2021/10/08 04:05:57;;;;;;;2.42;2.33;;;14.80;90.20;;;;;;4157348;28;20049;-60
2021/10/08 04:08:21;;;;;;;2.97;2.70;;;14.80;90.00;;;;;;4157211;28;20056;-61
2021/10/08 04:10:46;;;;;;;2.72;2.63;;;14.80;90.00;;;;;;4157150;28;20053;-60
2021/10/08 04:13:09;;;;;;;2.67;2.58;;;14.80;90.00;;;;;;4158505;28;20057;-60
2021/10/08 04:15:34;;;;;;;3.17;2.95;;;14.80;90.10;;;;;;4171296;28;20119;-58
2021/10/08 04:17:56;;;;;;;3.00;2.90;;;14.80;90.10;;;;;;4186743;28;20044;-59
2021/10/08 04:20:19;;;;;;;3.13;2.97;;;14.80;90.00;;;;;;4190037;28;20051;-60
2021/10/08 04:22:43;;;;;;;3.08;2.95;;;14.80;90.00;;;;;;4176540;28;20051;-60
2021/10/08 04:25:07;;;;;;;3.22;2.83;;;14.80;90.10;;;;;;4174852;28;20045;-60
2021/10/08 04:27:30;;;;;;;3.10;3.00;;;14.80;90.00;;;;;;4182201;28;20048;-60
2021/10/08 04:29:53;;;;;;;2.80;2.65;;;14.70;90.00;;;;;;4156976;28;20056;-60
2021/10/08 04:32:14;;;;;;;2.78;2.58;;;14.80;90.10;;;;;;4158307;28;20049;-60
2021/10/08 04:34:37;;;;;;;2.60;2.50;;;14.70;90.10;;;;;;4156774;28;20053;-60
2021/10/08 04:37:00;;;;;;;2.90;2.70;;;14.70;90.10;;;;;;4167236;28;20037;-60
2021/10/08 04:39:22;;;;;;;3.13;2.92;;;14.70;90.10;;;;;;4176975;28;20052;-60
2021/10/08 04:41:46;;;;;;;2.80;2.60;;;14.70;90.00;;;;;;4172768;28;20116;-60
2021/10/08 04:44:11;;;;;;;2.70;2.60;;;14.70;89.90;;;;;;4172762;28;20053;-60
2021/10/08 04:46:32;;;;;;;2.78;2.67;;;14.70;90.00;;;;;;4176299;28;20094;-60
2021/10/08 04:48:54;;;;;;;2.70;2.50;;;14.70;90.00;;;;;;4189646;28;20052;-61
2021/10/08 04:51:17;;;;;;;2.42;2.33;;;14.70;90.00;;;;;;4180101;28;20037;-60
2021/10/08 04:53:38;;;;;;;2.47;2.38;;;14.70;89.90;;;;;;4174637;28;20063;-60
2021/10/08 04:56:02;;;;;;;2.50;2.40;;;14.70;90.00;;;;;;4174556;28;20144;-60
2021/10/08 04:58:28;;;;;;;2.80;2.60;;;14.70;90.00;;;;;;4165653;28;20142;-60
2021/10/08 05:00:53;;;;;;;2.78;2.58;;;14.60;89.60;;;;;;4173325;28;20495;-61
2021/10/08 05:03:17;;;;;;;2.80;2.70;;;14.70;89.80;;;;;;4173356;28;20547;-60
2021/10/08 05:05:47;;;;;;;2.63;2.45;;;14.60;89.70;;;;;;4172959;28;20492;-61
2021/10/08 05:08:12;;;;;;;6.05;3.00;;;14.60;89.50;;;;;;4187966;28;20060;-60
2021/10/08 05:10:35;;;;;;;2.05;2.00;;;14.60;90.00;;;;;;4190576;28;20044;-60
2021/10/08 05:12:57;;;;;;;2.10;2.00;;;14.60;90.00;;;;;;4189534;28;20126;-60
2021/10/08 05:15:20;;;;;;;2.22;2.03;;;14.60;90.00;;;;;;4188085;28;20109;-60
2021/10/08 05:17:42;;;;;;;2.08;1.98;;;14.60;89.50;;;;;;4184532;28;20045;-61
2021/10/08 05:20:05;;;;;;;2.25;2.15;;;14.60;89.80;;;;;;4189394;28;20053;-60
2021/10/08 05:22:37;;;;;;;2.38;2.22;;;14.60;90.00;;;;;;4189296;28;20045;-60
2021/10/08 05:24:59;;;;;;;2.42;2.33;;;14.60;89.90;;;;;;4189415;28;20490;-61
2021/10/08 05:27:21;;;;;;;2.97;2.25;;;14.60;90.00;;;;;;4183477;28;20075;-60
2021/10/08 05:29:44;;;;;;;2.30;2.20;;;14.60;90.00;;;;;;4187536;28;20072;-59
2021/10/08 05:32:08;;;;;;;2.33;2.22;;;14.60;90.00;;;;;;4159870;28;20117;-60
2021/10/08 05:34:31;;;;;;;1.90;1.80;;;14.60;89.10;;;;;;4159290;28;21139;-62
2021/10/08 05:36:53;;;;;;;2.10;1.98;;;14.60;89.00;;;;;;4159563;28;20060;-60
2021/10/08 05:39:17;;;;;;;2.33;2.22;;;14.60;88.70;;;;;;4180095;28;20063;-61
2021/10/08 05:41:40;;;;;;;1.98;1.98;;;14.60;88.20;;;;;;4193631;28;20051;-61
2021/10/08 05:44:02;;;;;;;2.20;2.05;;;14.60;88.10;;;;;;4192628;28;20052;-61
2021/10/08 05:46:23;;;;;;;2.08;1.98;;;14.60;88.10;;;;;;4185182;28;20048;-61
2021/10/08 05:48:49;;;;;;;2.20;2.10;;;14.60;87.80;;;;;;4159943;28;20194;-61
2021/10/08 05:51:11;;;;;;;2.25;2.20;;;14.60;87.50;;;;;;4160944;28;20068;-62
2021/10/08 05:53:33;;;;;;;2.53;2.42;;;14.60;88.50;;;;;;4159429;28;20057;-62
2021/10/08 05:55:55;;;;;;;2.90;2.80;;;14.60;87.60;;;;;;4159099;28;20104;-62
2021/10/08 05:58:17;;;;;;;3.20;3.00;;;14.60;87.50;;;;;;4159324;28;20480;-61
2021/10/08 06:00:39;;;;;;;3.30;3.10;;;14.50;87.30;;;;;;4160680;28;20077;-61
2021/10/08 06:03:02;;;;;;;6.80;3.47;;;14.50;87.40;;;;;;4158987;28;20045;-62
2021/10/08 06:05:26;;;;;;;6.55;3.03;;;14.50;86.80;;;;;;4159372;28;20124;-62
2021/10/08 06:07:48;;;;;;;8.00;3.20;;;14.50;86.40;;;;;;4192059;28;20052;-62
2021/10/08 06:10:11;;;;;;;7.93;3.40;;;14.40;86.50;;;;;;4192088;28;20059;-61
2021/10/08 06:12:36;;;;;;;5.95;2.90;;;14.40;87.80;;;;;;4187243;28;20048;-62
2021/10/08 06:14:58;;;;;;;3.10;3.00;;;14.40;87.00;;;;;;4191869;28;20533;-63
2021/10/08 06:17:20;;;;;;;3.53;3.25;;;14.40;87.30;;;;;;4191706;28;20048;-62
2021/10/08 06:19:43;;;;;;;4.20;3.90;;;14.40;87.50;;;;;;4175610;28;20048;-63
2021/10/08 06:22:06;;;;;;;5.07;4.65;;;14.40;87.40;;;;;;4176749;28;20601;-62
2021/10/08 06:24:29;;;;;;;9.43;4.82;;;14.30;87.20;;;;;;4175364;28;20059;-62
2021/10/08 06:26:52;;;;;;;6.70;4.65;;;14.30;87.50;;;;;;4175539;28;20049;-63
2021/10/08 06:29:16;;;;;;;12.50;4.93;;;14.30;87.60;;;;;;4181314;28;20048;-62
2021/10/08 06:31:38;;;;;;;5.00;4.60;;;14.30;87.30;;;;;;4176953;28;20052;-63
2021/10/08 06:34:00;;;;;;;23.88;5.35;;;14.30;87.50;;;;;;4184254;28;20048;-64
2021/10/08 06:36:22;;;;;;;31.35;5.25;;;14.30;87.60;;;;;;4190914;28;20110;-62
2021/10/08 06:38:47;;;;;;;8.77;4.45;;;14.30;87.60;;;;;;4173356;28;20053;-61
2021/10/08 06:41:09;;;;;;;10.88;4.22;;;14.30;87.40;;;;;;4174526;28;20577;-62
2021/10/08 06:43:32;;;;;;;18.58;4.97;;;14.30;86.40;;;;;;4175256;28;20056;-62
2021/10/08 06:45:59;;;;;;;16.00;4.28;;;14.40;88.50;;;;;;4174672;28;20057;-61
2021/10/08 06:48:22;;;;;;;4.18;3.28;;;14.60;89.00;;;;;;4183086;28;20491;-62
2021/10/08 06:50:45;;;;;;;7.13;3.47;;;14.90;88.20;;;;;;4191535;28;20059;-62
2021/10/08 06:53:10;;;;;;;8.10;3.20;;;15.20;87.60;;;;;;4190992;28;20056;-63
2021/10/08 06:55:35;;;;;;;7.00;3.50;;;15.50;86.90;;;;;;4176913;28;20096;-63
2021/10/08 06:57:58;;;;;;;12.68;3.72;;;15.90;85.50;;;;;;4174333;28;20093;-60
2021/10/08 07:00:20;;;;;;;8.50;3.72;;;16.20;83.90;;;;;;4166244;28;20098;-60
2021/10/08 07:02:50;;;;;;;11.43;3.45;;;16.50;82.40;;;;;;4165803;28;20094;-59
2021/10/08 07:05:16;;;;;;;15.93;3.72;;;16.80;81.10;;;;;;4155269;28;20504;-59
2021/10/08 07:07:39;;;;;;;22.13;4.10;;;16.90;80.10;;;;;;4156089;28;20077;-60
2021/10/08 07:10:01;;;;;;;7.80;3.72;;;17.00;79.40;;;;;;4167481;28;20044;-60
2021/10/08 07:12:27;;;;;;;9.93;3.75;;;17.10;78.80;;;;;;4183193;28;20146;-62
2021/10/08 07:14:49;;;;;;;8.00;3.75;;;17.20;78.40;;;;;;4192505;28;20045;-60
2021/10/08 07:17:24;;;;;;;4.70;3.50;;;17.20;78.30;;;;;;4192210;28;20049;-60
2021/10/08 07:19:46;;;;;;;6.78;4.45;;;17.20;78.10;;;;;;4191591;28;20055;-60
2021/10/08 07:22:11;;;;;;;5.53;4.20;;;17.10;77.90;;;;;;4191252;28;20075;-58
2021/10/08 07:24:34;;;;;;;5.28;4.88;;;17.10;77.40;;;;;;4158227;28;20046;-60
2021/10/08 07:26:57;;;;;;;5.28;4.88;;;17.00;77.80;;;;;;4158811;28;20046;-60
2021/10/08 07:29:22;;;;;;;6.75;4.68;;;16.90;78.10;;;;;;4166296;28;20056;-60
2021/10/08 07:31:44;;;;;;;5.18;4.70;;;16.90;78.10;;;;;;4159257;28;20057;-60
2021/10/08 07:34:07;;;;;;;5.70;5.22;;;16.80;78.70;;;;;;4174582;28;20495;-63
2021/10/08 07:36:30;;;;;;;5.00;4.68;;;16.80;79.10;;;;;;4175925;28;20049;-61
2021/10/08 07:38:52;;;;;;;5.47;4.97;;;16.70;79.10;;;;;;4175766;28;20060;-60
2021/10/08 07:41:15;;;;;;;4.80;4.50;;;16.60;79.40;;;;;;4175583;28;20041;-61
2021/10/08 07:43:37;;;;;;;5.22;4.85;;;16.60;79.60;;;;;;4185575;28;20040;-61
2021/10/08 07:46:00;;;;;;;4.78;4.47;;;16.50;79.90;;;;;;4191933;28;20556;-60
2021/10/08 07:48:22;;;;;;;5.57;5.18;;;16.50;80.00;;;;;;4191928;28;20103;-62
2021/10/08 07:50:44;;;;;;;5.57;5.18;;;16.40;80.60;;;;;;4178698;28;20059;-62
2021/10/08 07:53:06;;;;;;;5.10;4.80;;;16.40;81.00;;;;;;4180919;28;20044;-62
2021/10/08 07:55:28;;;;;;;6.03;5.63;;;16.30;81.20;;;;;;4191695;28;20131;-62
2021/10/08 07:57:50;;;;;;;6.32;5.82;;;16.30;81.40;;;;;;4192165;28;20098;-62
2021/10/08 08:00:13;;;;;;;6.75;6.25;;;16.30;81.70;;;;;;4183334;28;20079;-61
2021/10/08 08:02:37;;;;;;;6.95;6.45;;;16.20;81.80;;;;;;4175308;28;20049;-61
2021/10/08 08:04:59;;;;;;;8.00;7.20;;;16.20;82.10;;;;;;4177233;28;20045;-62
2021/10/08 08:07:21;;;;;;;7.70;7.00;;;16.20;82.60;;;;;;4174977;28;20049;-62
2021/10/08 08:09:43;;;;;;;6.85;6.25;;;16.10;82.50;;;;;;4175040;28;20048;-61
2021/10/08 08:12:06;;;;;;;7.70;7.05;;;16.20;82.80;;;;;;4174849;28;20130;-61
2021/10/08 08:14:28;;;;;;;8.27;7.53;;;16.10;83.00;;;;;;4190623;28;20117;-60
2021/10/08 08:16:50;;;;;;;8.32;7.63;;;16.10;83.20;;;;;;4191371;28;20075;-60
2021/10/08 08:19:14;;;;;;;9.15;8.35;;;16.10;83.50;;;;;;4178219;28;20126;-61
2021/10/08 08:21:36;;;;;;;9.68;8.77;;;16.10;83.40;;;;;;4178482;28;20048;-60
2021/10/08 08:23:58;;;;;;;9.35;8.52;;;16.00;83.10;;;;;;4184936;28;20103;-60
2021/10/08 08:26:21;;;;;;;9.52;8.52;;;16.00;82.90;;;;;;4189114;28;20098;-60
2021/10/08 08:28:43;;;;;;;8.38;7.63;;;16.00;83.60;;;;;;4174712;28;20144;-61
2021/10/08 08:31:05;;;;;;;8.38;7.68;;;16.00;84.00;;;;;;4185871;28;20098;-61
2021/10/08 08:33:28;;;;;;;8.93;8.23;;;16.00;84.30;;;;;;4174835;28;20419;-61
2021/10/08 08:35:53;;;;;;;9.27;8.48;;;15.90;84.40;;;;;;4174226;28;20057;-61
2021/10/08 08:38:15;;;;;;;8.80;8.00;;;15.90;84.20;;;;;;4174630;28;20049;-61
2021/10/08 08:40:37;;;;;;;9.48;8.68;;;15.90;85.30;;;;;;4174974;28;20056;-61
2021/10/08 08:43:00;;;;;;;9.10;8.30;;;15.90;84.80;;;;;;4173185;28;20526;-62
2021/10/08 08:45:23;;;;;;;9.57;8.68;;;15.90;85.00;;;;;;4174224;28;20060;-61
2021/10/08 08:47:57;;;;;;;11.07;9.02;;;15.90;85.30;;;;;;4174327;28;20045;-62
2021/10/08 08:50:19;;;;;;;10.27;9.27;;;15.80;85.30;;;;;;4174336;28;20458;-61
2021/10/08 08:52:45;;;;;;;10.48;9.43;;;15.80;86.00;;;;;;4174391;28;20049;-62
2021/10/08 08:55:09;;;;;;;11.45;10.35;;;15.80;85.70;;;;;;4163900;28;20132;-62
2021/10/08 08:57:31;;;;;;;11.43;10.35;;;15.80;85.30;;;;;;4173262;28;20099;-60
2021/10/08 08:59:58;;;;;;;10.65;9.65;;;15.80;83.90;;;;;;4174722;28;20633;-61
2021/10/08 09:02:25;;;;;;;11.73;10.70;;;15.80;84.60;;;;;;4165076;28;20077;-61
2021/10/08 09:04:47;;;;;;;10.80;9.88;;;15.70;84.90;;;;;;4160288;28;20080;-62
2021/10/08 09:07:15;;;;;;;14.02;12.38;;;15.70;85.60;;;;;;4160121;28;20045;-61
2021/10/08 09:09:38;;;;;;;14.95;10.85;;;15.70;85.80;;;;;;4161134;28;20059;-61
2021/10/08 09:12:01;;;;;;;11.93;10.82;;;15.70;86.30;;;;;;4163828;28;20046;-61
2021/10/08 09:14:25;;;;;;;13.18;11.77;;;15.70;87.00;;;;;;4160411;28;20546;-60
2021/10/08 09:17:20;;;;;;;13.90;12.35;;;15.70;87.30;;;;;;4160474;28;20732;-61
2021/10/08 09:19:54;;;;;;;13.70;12.40;;;15.70;87.40;;;;;;4109730;28;20145;-62
2021/10/08 09:22:18;;;;;;;14.55;13.05;;;15.70;87.70;;;;;;4121083;28;20497;-61
2021/10/08 09:24:41;;;;;;;13.65;12.27;;;15.70;88.20;;;;;;4152123;28;20486;-61
2021/10/08 09:27:08;;;;;;;15.75;13.68;;;15.70;88.60;;;;;;4177596;28;20242;-62
2021/10/08 09:29:31;;;;;;;14.55;13.13;;;15.70;89.00;;;;;;4177436;28;20052;-60
2021/10/08 09:31:54;;;;;;;14.10;12.65;;;15.70;89.30;;;;;;4177909;28;20056;-60
2021/10/08 09:34:18;;;;;;;14.98;13.45;;;15.70;89.50;;;;;;4177469;28;20051;-60
2021/10/08 09:36:45;;;;;;;16.98;13.95;;;15.70;89.70;;;;;;4178996;28;20106;-61
2021/10/08 09:39:17;;;;;;;15.25;13.65;;;15.80;90.00;;;;;;4177620;28;20131;-60
2021/10/08 09:41:40;;;;;;;15.40;13.57;;;15.80;90.10;;;;;;4177097;28;20052;-60
2021/10/08 09:44:05;;;;;;;15.10;13.60;;;15.80;90.20;;;;;;4177360;28;20110;-61
2021/10/08 09:46:27;;;;;;;15.25;13.40;;;15.80;90.40;;;;;;4177218;28;20068;-63
2021/10/08 09:48:50;;;;;;;14.95;13.27;;;15.80;90.30;;;;;;4160870;28;20045;-63
2021/10/08 09:51:17;;;;;;;13.93;12.52;;;15.80;90.40;;;;;;4160724;28;20057;-62
2021/10/08 09:53:55;;;;;;;15.10;13.60;;;15.80;90.50;;;;;;4167515;28;20065;-62
2021/10/08 09:56:30;;;;;;;14.65;13.13;;;15.90;90.80;;;;;;4176867;28;20441;-63
2021/10/08 09:58:54;;;;;;;13.57;12.18;;;15.80;90.70;;;;;;4161614;28;20514;-61
2021/10/08 10:01:25;;;;;;;13.88;12.48;;;15.90;90.70;;;;;;4193309;28;20044;-61
2021/10/08 10:03:51;;;;;;;;;;;15.90;91.10;;;;;;4168659;28;20056;-58
2021/10/08 10:06:14;;;;;;;13.93;12.52;;;15.90;90.70;;;;;;4160858;28;20013;-62
2021/10/08 10:08:39;;;;;;;12.07;10.77;;;15.90;90.80;;;;;;4160671;28;20099;-62
2021/10/08 10:11:01;;;;;;;11.77;10.57;;;16.00;90.90;;;;;;4160207;28;20042;-61
2021/10/08 10:13:24;;;;;;;11.52;10.38;;;16.10;90.70;;;;;;4192370;28;20048;-62
2021/10/08 10:15:48;;;;;;;11.70;10.50;;;16.20;90.50;;;;;;4193245;28;20447;-62
2021/10/08 10:18:12;;;;;;;11.10;10.07;;;16.40;90.20;;;;;;4193098;28;20048;-63
2021/10/08 10:20:35;;;;;;;10.85;9.85;;;16.50;90.00;;;;;;4190158;28;20127;-62
2021/10/08 10:22:59;;;;;;;11.45;10.27;;;16.60;90.10;;;;;;4191677;28;20044;-61
2021/10/08 10:25:22;;;;;;;10.65;9.63;;;16.70;89.20;;;;;;4176757;28;20152;-62
2021/10/08 10:27:44;;;;;;;13.35;10.50;;;16.80;88.80;;;;;;4191674;28;20050;-61
2021/10/08 10:30:09;;;;;;;16.98;11.15;;;16.90;88.30;;;;;;4177830;28;20507;-62
2021/10/08 10:32:34;;;;;;;11.30;10.25;;;17.00;88.10;;;;;;4176727;28;20522;-62
2021/10/08 10:34:56;;;;;;;11.32;10.23;;;17.00;87.60;;;;;;4193292;28;20135;-61
2021/10/08 10:37:37;;;;;;;11.25;10.25;;;17.10;87.60;;;;;;4193095;28;20056;-61
2021/10/08 10:40:17;;;;;;;12.00;10.07;;;17.20;87.40;;;;;;4192468;28;20056;-62
2021/10/08 10:42:40;;;;;;;11.27;10.27;;;17.20;87.40;;;;;;4159890;28;20061;-62
2021/10/08 10:45:17;;;;;;;12.40;11.10;;;17.20;87.40;;;;;;4166614;28;20052;-62
2021/10/08 10:47:41;;;;;;;11.90;10.80;;;17.30;87.30;;;;;;4176022;28;20052;-62
2021/10/08 10:50:13;;;;;;;11.07;10.07;;;17.30;87.30;;;;;;4176302;28;20057;-62
2021/10/08 10:52:47;;;;;;;11.27;10.27;;;17.30;87.00;;;;;;4176153;28;20072;-62
2021/10/08 10:55:11;;;;;;;10.63;9.65;;;17.40;87.10;;;;;;4176105;28;20068;-63
2021/10/08 10:58:07;;;;;;;9.73;8.70;;;17.40;86.90;;;;;;4179573;28;20479;-63
2021/10/08 11:00:44;;;;;;;9.48;8.65;;;17.40;86.50;;;;;;4192279;28;20048;-63
2021/10/08 11:03:11;;;;;;;9.68;8.80;;;17.50;86.30;;;;;;4192727;28;20064;-62
2021/10/08 11:05:37;;;;;;;8.85;8.15;;;17.50;86.20;;;;;;4192540;28;20491;-62
2021/10/08 11:08:20;;;;;;;8.65;7.85;;;17.50;86.00;;;;;;4191940;28;20044;-62
2021/10/08 11:10:45;;;;;;;8.50;7.80;;;17.50;86.00;;;;;;4174512;28;20045;-62
2021/10/08 11:13:31;;;;;;;8.13;7.43;;;17.50;86.80;;;;;;4176216;28;20048;-62
2021/10/08 11:15:54;;;;;;;8.93;8.13;;;17.50;85.90;;;;;;4159389;28;20414;-61
2021/10/08 11:18:35;;;;;;;10.05;9.05;;;17.50;85.90;;;;;;4159257;28;20143;-62
2021/10/08 11:20:57;;;;;;;8.10;7.30;;;17.50;86.80;;;;;;4159504;28;20519;-61
2021/10/08 11:23:29;;;;;;;7.95;7.25;;;17.50;85.90;;;;;;4143157;28;20045;-60
2021/10/08 11:25:52;;;;;;;;;;;17.50;85.90;;;;;;4143322;28;20049;-62
2021/10/08 11:28:15;;;;;;;7.00;6.32;;;17.50;85.90;;;;;;4142973;28;20329;-62
2021/10/08 11:30:38;;;;;;;7.45;6.85;;;17.60;85.70;;;;;;4159624;28;20053;-62
2021/10/08 11:32:59;;;;;;;8.75;7.35;;;17.70;85.30;;;;;;4150280;28;20052;-61
2021/10/08 11:35:31;;;;;;;6.85;6.35;;;17.70;85.10;;;;;;4142899;28;20045;-63
2021/10/08 11:37:53;;;;;;;5.90;5.50;;;17.80;84.60;;;;;;4142346;28;20056;-63
2021/10/08 11:40:26;;;;;;;6.38;5.88;;;17.80;84.30;;;;;;4142901;28;20467;-63
2021/10/08 11:42:54;;;;;;;5.95;5.55;;;17.80;84.00;;;;;;4142480;28;20136;-62
2021/10/08 11:45:21;;;;;;;5.55;5.15;;;17.90;84.00;;;;;;4152808;28;20480;-62
2021/10/08 11:47:47;;;;;;;5.68;5.28;;;17.90;84.00;;;;;;4158640;28;20092;-62
2021/10/08 11:52:56;;;;;;;5.57;5.05;;;17.90;83.70;;;;;;4158680;28;20045;-61
2021/10/08 11:55:21;;;;;;;5.20;4.82;;;17.90;83.70;;;;;;4158482;28;20132;-61
2021/10/08 11:57:53;;;;;;;3.65;2.97;;;17.80;83.30;;;;;;4161863;28;20064;-61
2021/10/08 12:00:16;;;;;;;3.50;3.30;;;17.80;83.20;;;;;;4142285;28;20054;-61
2021/10/08 12:02:39;;;;;;;3.33;3.13;;;17.80;83.60;;;;;;4158732;28;20056;-61
2021/10/08 12:05:05;;;;;;;3.17;2.97;;;17.80;83.90;;;;;;4158492;28;20129;-61
2021/10/08 12:07:32;;;;;;;5.55;2.97;;;17.80;82.50;;;;;;4160017;28;20061;-61
2021/10/08 12:10:09;;;;;;;2.90;2.80;;;17.80;81.30;;;;;;4174655;28;20048;-62
2021/10/08 12:12:32;;;;;;;2.70;2.47;;;17.70;81.60;;;;;;4175734;28;20102;-61
2021/10/08 12:14:54;;;;;;;3.88;3.58;;;17.70;81.70;;;;;;4174751;28;20057;-62
2021/10/08 12:17:21;;;;;;;5.63;3.63;;;17.70;81.60;;;;;;4158447;28;20396;-62
2021/10/08 12:19:43;;;;;;;3.53;3.33;;;17.70;80.60;;;;;;4158626;28;20107;-62
2021/10/08 12:22:05;;;;;;;3.25;3.03;;;17.70;81.00;;;;;;4170486;28;20044;-62
2021/10/08 12:24:29;;;;;;;3.28;3.08;;;17.70;82.50;;;;;;4191168;28;20052;-63
2021/10/08 12:26:57;;;;;;;3.75;3.38;;;17.60;80.90;;;;;;4191438;28;20048;-62
2021/10/08 12:29:19;;;;;;;4.22;3.92;;;17.70;80.70;;;;;;4161684;28;20073;-63